createdAt,value
2018-04-13T00:02:21.073Z,67.20
2018-04-13T00:04:51.711Z,67.20
2018-04-13T00:07:22.174Z,67.20
2018-04-13T00:09:52.639Z,67.40
2018-04-13T00:12:22.975Z,67.30
2018-04-13T00:14:53.171Z,67.60
2018-04-13T00:17:23.378Z,67.60
2018-04-13T00:19:53.586Z,67.50
2018-04-13T00:22:24.307Z,67.70
2018-04-13T00:24:54.619Z,67.60
2018-04-13T00:27:27.335Z,67.90
2018-04-13T00:30:00.165Z,67.70
2018-04-13T00:32:30.543Z,67.80
2018-04-13T00:35:02.129Z,67.70
2018-04-13T00:37:32.536Z,67.80
2018-04-13T00:40:02.994Z,68.00
2018-04-13T00:42:33.605Z,67.80
2018-04-13T00:45:03.866Z,68.50
2018-04-13T00:47:35.194Z,68.80
2018-04-13T00:50:05.802Z,67.90
2018-04-13T00:52:36.031Z,68.00
2018-04-13T00:55:06.350Z,68.20
2018-04-13T00:57:36.952Z,68.00
2018-04-13T01:00:07.534Z,68.20
2018-04-13T01:02:38.286Z,68.20
2018-04-13T01:05:12.253Z,68.30
2018-04-13T01:07:43.901Z,68.30
2018-04-13T01:10:15.981Z,68.30
2018-04-13T01:12:47.119Z,68.40
2018-04-13T01:15:19.214Z,68.60
2018-04-13T01:17:49.709Z,68.40
2018-04-13T01:20:20.067Z,68.40
2018-04-13T01:22:50.664Z,68.40
2018-04-13T01:25:21.076Z,68.50
2018-04-13T01:27:51.481Z,68.60
2018-04-13T01:30:21.849Z,68.60
2018-04-13T01:32:52.341Z,68.80
2018-04-13T01:35:22.621Z,68.60
2018-04-13T01:37:52.991Z,68.70
2018-04-13T01:40:23.266Z,69.10
2018-04-13T01:42:53.670Z,68.70
2018-04-13T01:45:23.965Z,68.80
2018-04-13T01:47:54.486Z,69.10
2018-04-13T01:50:25.045Z,68.90
2018-04-13T01:52:55.242Z,68.80
2018-04-13T01:55:25.563Z,68.90
2018-04-13T01:57:56.514Z,68.90
2018-04-13T02:00:26.820Z,69.00
2018-04-13T02:02:57.350Z,69.00
2018-04-13T02:05:29.089Z,69.00
2018-04-13T02:07:59.589Z,69.00
2018-04-13T02:10:30.085Z,69.10
2018-04-13T02:13:00.415Z,69.30
2018-04-13T02:15:31.253Z,69.40
2018-04-13T02:18:01.307Z,69.40
2018-04-13T02:20:32.959Z,69.40
2018-04-13T02:23:02.978Z,69.40
2018-04-13T02:25:32.891Z,69.40
2018-04-13T02:28:02.973Z,69.50
2018-04-13T02:30:33.129Z,69.50
2018-04-13T02:33:03.047Z,69.40
2018-04-13T02:35:34.856Z,69.40
2018-04-13T02:38:05.329Z,69.40
2018-04-13T02:40:36.269Z,69.60
2018-04-13T02:43:06.387Z,69.60
2018-04-13T02:45:36.303Z,69.60
2018-04-13T02:48:06.217Z,69.60
2018-04-13T02:50:36.950Z,69.70
2018-04-13T02:53:07.477Z,69.70
2018-04-13T02:55:37.448Z,69.70
2018-04-13T02:58:07.606Z,69.80
2018-04-13T03:00:38.347Z,69.90
2018-04-13T03:03:08.158Z,69.80
2018-04-13T03:05:39.096Z,70.00
2018-04-13T03:08:09.010Z,69.80
2018-04-13T03:10:38.925Z,70.00
2018-04-13T03:13:08.966Z,70.00
2018-04-13T03:15:39.542Z,70.10
2018-04-13T03:18:09.478Z,70.00
2018-04-13T03:20:39.405Z,70.10
2018-04-13T03:23:09.490Z,70.90
2018-04-13T03:25:39.434Z,70.10
2018-04-13T03:28:09.360Z,70.10
2018-04-13T03:30:39.266Z,70.20
2018-04-13T03:33:09.558Z,70.20
2018-04-13T03:35:39.505Z,70.20
2018-04-13T03:38:09.413Z,70.30
2018-04-13T03:40:39.328Z,70.40
2018-04-13T03:43:09.243Z,70.30
2018-04-13T03:45:39.361Z,70.40
2018-04-13T03:48:09.280Z,70.40
2018-04-13T03:50:40.424Z,70.50
2018-04-13T03:53:10.334Z,70.40
2018-04-13T03:55:40.249Z,70.70
2018-04-13T03:58:12.210Z,70.60
2018-04-13T04:00:42.125Z,70.60
2018-04-13T04:03:12.243Z,70.80
2018-04-13T04:05:42.976Z,70.80
2018-04-13T04:08:12.853Z,70.80
2018-04-13T04:10:42.772Z,71.00
2018-04-13T04:13:13.130Z,70.90
2018-04-13T04:15:43.054Z,71.10
2018-04-13T04:18:12.957Z,71.00
2018-04-13T04:25:20.375Z,71.10
2018-04-13T04:27:50.495Z,71.30
2018-04-13T04:30:21.435Z,71.40
2018-04-13T04:32:51.350Z,71.40
2018-04-13T04:35:21.876Z,71.50
2018-04-13T04:37:52.032Z,71.50
2018-04-13T04:40:22.523Z,71.30
2018-04-13T04:42:52.235Z,71.40
2018-04-13T04:45:22.557Z,71.60
2018-04-13T04:47:52.681Z,71.80
2018-04-13T04:50:24.332Z,71.90
2018-04-13T04:52:55.579Z,71.80
2018-04-13T04:55:26.258Z,71.70
2018-04-13T04:57:56.024Z,71.60
2018-04-13T05:00:25.938Z,71.60
2018-04-13T05:02:56.263Z,71.60
2018-04-13T05:05:26.166Z,71.60
2018-04-13T05:07:57.113Z,71.80
2018-04-13T05:10:27.027Z,71.80
2018-04-13T05:13:02.158Z,72.50
2018-04-13T05:15:33.001Z,72.50
2018-04-13T05:18:02.914Z,72.60
2018-04-13T05:20:33.034Z,72.20
2018-04-13T05:23:04.755Z,72.50
2018-04-13T05:25:34.911Z,72.40
2018-04-13T05:28:05.029Z,72.40
2018-04-13T05:30:34.948Z,72.80
2018-04-13T05:33:05.064Z,72.50
2018-04-13T05:35:35.392Z,72.80
2018-04-13T05:38:05.303Z,73.70
2018-04-13T05:40:35.250Z,73.40
2018-04-13T05:43:05.334Z,73.30
2018-04-13T05:45:36.054Z,73.70
2018-04-13T05:48:11.808Z,73.70
2018-04-13T05:50:48.168Z,73.80
2018-04-13T05:53:18.600Z,73.80
2018-04-13T05:55:48.754Z,74.60
2018-04-13T05:58:19.343Z,74.60
2018-04-13T06:00:49.278Z,74.60
2018-04-13T06:03:19.340Z,75.20
2018-04-13T06:05:49.312Z,75.40
2018-04-13T06:08:33.967Z,75.50
2018-04-13T06:11:04.456Z,75.70
2018-04-13T06:13:34.619Z,76.40
2018-04-13T06:16:04.530Z,75.70
2018-04-13T06:18:34.608Z,75.90
2018-04-13T06:21:04.768Z,75.50
2018-04-13T06:23:34.682Z,76.10
2018-04-13T06:26:04.802Z,75.40
2018-04-13T06:28:35.127Z,75.40
2018-04-13T06:31:05.250Z,75.30
2018-04-13T06:33:35.158Z,75.40
2018-04-13T06:36:06.914Z,75.30
2018-04-13T06:38:38.396Z,77.30
2018-04-13T06:41:09.372Z,77.80
2018-04-13T06:43:40.559Z,77.90
2018-04-13T06:46:10.465Z,78.30
2018-04-13T06:48:40.382Z,78.30
2018-04-13T06:51:10.703Z,78.00
2018-04-13T06:53:40.896Z,77.80
2018-04-13T06:56:10.941Z,77.90
2018-04-13T06:58:41.705Z,78.70
2018-04-13T07:01:11.746Z,78.80
2018-04-13T07:03:41.709Z,79.00
2018-04-13T07:06:12.424Z,78.00
2018-04-13T07:08:42.637Z,77.60
2018-04-13T07:11:12.584Z,77.90
2018-04-13T07:13:42.702Z,77.70
2018-04-13T07:16:12.612Z,78.60
2018-04-13T07:18:42.934Z,78.60
2018-04-13T07:21:12.850Z,79.10
2018-04-13T07:23:44.171Z,78.60
2018-04-13T07:26:14.318Z,78.60
2018-04-13T07:28:44.848Z,79.00
2018-04-13T07:31:16.406Z,79.40
2018-04-13T07:33:46.313Z,79.40
2018-04-13T07:36:17.580Z,79.40
2018-04-13T07:38:48.802Z,79.40
2018-04-13T07:41:19.948Z,79.40
2018-04-13T07:43:51.397Z,79.10
2018-04-13T07:46:22.029Z,79.10
2018-04-13T07:48:52.163Z,79.00
2018-04-13T07:51:22.113Z,79.30
2018-04-13T07:53:52.389Z,79.40
2018-04-13T07:56:23.104Z,79.20
2018-04-13T07:58:53.028Z,79.00
2018-04-13T08:01:23.152Z,78.70
2018-04-13T08:03:54.789Z,78.90
2018-04-13T08:06:24.797Z,78.90
2018-04-13T08:08:55.015Z,78.70
2018-04-13T08:11:24.856Z,79.00
2018-04-13T08:13:55.027Z,79.40
2018-04-13T08:16:25.127Z,78.60
2018-04-13T08:18:56.019Z,79.40
2018-04-13T08:21:26.120Z,79.10
2018-04-13T08:23:56.068Z,79.10
2018-04-13T08:26:26.092Z,79.30
2018-04-13T08:28:56.009Z,79.10
2018-04-13T08:31:26.840Z,79.20
2018-04-13T08:33:57.753Z,79.00
2018-04-13T08:36:28.079Z,79.10
2018-04-13T08:38:58.074Z,79.00
2018-04-13T08:41:28.114Z,79.20
2018-04-13T08:43:58.052Z,79.20
2018-04-13T08:46:28.168Z,78.90
2018-04-13T08:48:58.044Z,79.20
2018-04-13T08:51:27.786Z,79.30
2018-04-13T08:53:57.679Z,79.00
2018-04-13T08:56:27.822Z,79.20
2018-04-13T08:58:57.537Z,79.00
2018-04-13T09:01:27.407Z,79.00
2018-04-13T09:03:57.237Z,78.90
2018-04-13T09:06:27.822Z,78.70
2018-04-13T09:08:57.800Z,78.70
2018-04-13T09:11:28.293Z,78.70
2018-04-13T09:13:58.243Z,78.70
2018-04-13T09:16:28.771Z,81.30
2018-04-13T09:18:59.713Z,80.80
2018-04-13T09:21:29.626Z,80.80
2018-04-13T09:23:59.649Z,80.90
2018-04-13T09:26:30.248Z,81.10
2018-04-13T09:29:00.973Z,80.80
2018-04-13T09:31:31.095Z,80.50
2018-04-13T09:34:01.013Z,81.30
2018-04-13T09:36:30.954Z,81.10
2018-04-13T09:39:00.867Z,81.40
2018-04-13T09:41:30.785Z,81.20
2018-04-13T09:44:00.659Z,79.60
2018-04-13T09:46:30.945Z,79.10
2018-04-13T09:49:01.761Z,78.70
2018-04-13T09:51:31.628Z,78.60
2018-04-13T09:54:01.385Z,78.60
2018-04-13T09:56:31.504Z,78.60
2018-04-13T09:59:02.651Z,78.30
2018-04-13T10:01:37.061Z,78.30
2018-04-13T10:04:08.093Z,78.30
2018-04-13T10:06:38.645Z,78.30
2018-04-13T10:09:09.874Z,77.90
2018-04-13T10:11:40.168Z,77.90
2018-04-13T10:14:10.114Z,78.30
2018-04-13T10:16:40.027Z,78.30
2018-04-13T10:19:09.944Z,78.10
2018-04-13T10:21:40.042Z,78.00
2018-04-13T10:24:09.881Z,77.90
2018-04-13T10:26:40.707Z,77.90
2018-04-13T10:29:11.442Z,77.70
2018-04-13T10:31:41.153Z,77.80
2018-04-13T10:34:12.511Z,77.80
2018-04-13T10:36:42.414Z,77.80
2018-04-13T10:39:15.514Z,77.60
2018-04-13T10:41:46.542Z,77.50
2018-04-13T10:44:17.083Z,77.50
2018-04-13T10:46:47.657Z,77.60
2018-04-13T10:49:17.937Z,77.70
2018-04-13T10:51:49.387Z,77.50
2018-04-13T10:54:19.826Z,77.60
2018-04-13T10:56:49.719Z,77.70
2018-04-13T10:59:19.966Z,77.80
2018-04-13T11:01:50.104Z,77.60
2018-04-13T11:04:20.385Z,77.70
2018-04-13T11:06:50.927Z,77.60
2018-04-13T11:09:20.891Z,77.90
2018-04-13T11:11:50.642Z,77.80
2018-04-13T11:14:22.134Z,78.10
2018-04-13T11:16:52.126Z,78.00
2018-04-13T11:19:22.027Z,77.60
2018-04-13T11:21:51.737Z,77.90
2018-04-13T11:24:21.450Z,78.00
2018-04-13T11:26:52.387Z,78.00
2018-04-13T11:29:22.711Z,78.00
2018-04-13T11:31:52.528Z,78.00
2018-04-13T11:34:22.439Z,77.80
2018-04-13T11:36:52.161Z,77.80
2018-04-13T11:39:22.679Z,77.50
2018-04-13T11:41:52.800Z,77.80
2018-04-13T11:44:22.804Z,77.70
2018-04-13T11:46:53.662Z,77.70
2018-04-13T11:49:23.543Z,77.80
2018-04-13T11:51:53.313Z,77.80
2018-04-13T11:54:23.398Z,77.70
2018-04-13T11:56:53.721Z,78.40
2018-04-13T11:59:23.695Z,77.90
2018-04-13T12:01:53.550Z,77.80
2018-04-13T12:04:24.077Z,77.80
2018-04-13T12:06:55.017Z,77.80
2018-04-13T12:09:25.751Z,78.00
2018-04-13T12:11:55.561Z,78.00
2018-04-13T12:14:26.462Z,78.00
2018-04-13T12:16:56.621Z,77.90
2018-04-13T12:19:27.356Z,77.90
2018-04-13T12:21:57.884Z,78.30
2018-04-13T12:24:29.452Z,78.30
2018-04-13T12:26:59.350Z,78.20
2018-04-13T12:29:29.268Z,78.10
2018-04-13T12:32:05.507Z,79.80
2018-04-13T12:34:43.742Z,78.60
2018-04-13T12:37:14.372Z,78.20
2018-04-13T12:39:44.487Z,78.40
2018-04-13T12:42:14.197Z,78.00
2018-04-13T12:44:43.907Z,78.00
2018-04-13T12:47:14.026Z,77.80
2018-04-13T12:49:45.684Z,77.60
2018-04-13T12:52:15.663Z,78.30
2018-04-13T12:54:45.890Z,77.70
2018-04-13T12:57:16.755Z,77.60
2018-04-13T12:59:46.677Z,77.50
2018-04-13T13:02:16.585Z,77.60
2018-04-13T13:04:46.702Z,77.50
2018-04-13T13:07:17.031Z,77.80
2018-04-13T13:09:46.941Z,78.00
2018-04-13T13:12:16.822Z,78.10
2018-04-13T13:14:46.770Z,78.30
2018-04-13T13:17:16.687Z,78.30
2018-04-13T13:19:48.140Z,78.20
2018-04-13T13:22:18.159Z,78.20
2018-04-13T13:24:48.885Z,78.10
2018-04-13T13:27:18.927Z,78.40
2018-04-13T13:29:48.942Z,78.50
2018-04-13T13:32:18.834Z,78.70
2018-04-13T13:34:48.927Z,78.50
2018-04-13T13:37:18.661Z,78.80
2018-04-13T13:39:49.397Z,78.90
2018-04-13T13:42:19.484Z,78.90
2018-04-13T13:44:49.394Z,79.10
2018-04-13T13:47:19.139Z,79.10
2018-04-13T13:49:49.017Z,78.90
2018-04-13T13:52:18.764Z,79.10
2018-04-13T13:54:48.857Z,79.10
2018-04-13T13:57:18.876Z,79.20
2018-04-13T13:59:48.934Z,79.40
2018-04-13T14:02:19.015Z,79.40
2018-04-13T14:04:48.949Z,79.50
2018-04-13T14:07:19.206Z,79.50
2018-04-13T14:09:49.513Z,79.50
2018-04-13T14:12:20.329Z,79.30
2018-04-13T14:14:50.293Z,79.30
2018-04-13T14:17:20.364Z,79.60
2018-04-13T14:19:50.370Z,79.50
2018-04-13T14:22:20.395Z,79.50
2018-04-13T14:24:50.313Z,79.50
2018-04-13T14:27:20.224Z,79.40
2018-04-13T14:29:50.138Z,79.60
2018-04-13T14:32:20.237Z,79.40
2018-04-13T14:34:50.084Z,79.40
2018-04-13T14:37:21.081Z,79.30
2018-04-13T14:39:51.158Z,79.30
2018-04-13T14:42:21.145Z,79.10
2018-04-13T14:44:51.058Z,79.00
2018-04-13T14:47:21.294Z,79.00
2018-04-13T14:49:51.274Z,79.00
2018-04-13T14:52:21.315Z,79.00
2018-04-13T14:54:52.047Z,78.90
2018-04-13T14:57:23.577Z,81.70
2018-04-13T14:59:53.517Z,81.70
2018-04-13T15:02:23.633Z,82.20
2018-04-13T15:04:53.754Z,82.50
2018-04-13T15:07:23.610Z,82.10
2018-04-13T15:09:53.787Z,81.90
2018-04-13T15:12:24.728Z,82.10
2018-04-13T15:14:54.646Z,81.90
2018-04-13T15:17:24.510Z,82.10
2018-04-13T15:19:54.466Z,82.00
2018-04-13T15:22:24.181Z,82.20
2018-04-13T15:24:54.091Z,82.40
2018-04-13T15:27:23.919Z,82.30
2018-04-13T15:29:54.535Z,82.30
2018-04-13T15:32:25.882Z,82.30
2018-04-13T15:34:56.619Z,82.20
2018-04-13T15:37:26.942Z,82.20
2018-04-13T15:39:57.263Z,82.00
2018-04-13T15:42:27.178Z,82.20
2018-04-13T15:44:57.477Z,82.10
2018-04-13T15:47:27.801Z,82.20
2018-04-13T15:49:57.944Z,82.70
2018-04-13T15:52:28.035Z,81.90
2018-04-13T15:54:58.593Z,82.00
2018-04-13T15:57:28.511Z,81.80
2018-04-13T15:59:58.625Z,81.70
2018-04-13T16:02:28.927Z,81.70
2018-04-13T16:04:58.863Z,81.70
2018-04-13T16:07:29.330Z,81.70
2018-04-13T16:09:59.295Z,81.80
2018-04-13T16:12:30.449Z,81.60
2018-04-13T16:15:02.063Z,81.60
2018-04-13T16:17:32.316Z,81.60
2018-04-13T16:20:04.062Z,81.40
2018-04-13T16:22:34.001Z,81.40
2018-04-13T16:25:03.913Z,81.20
2018-04-13T16:27:33.827Z,81.30
2018-04-13T16:30:04.153Z,81.20
2018-04-13T16:32:34.269Z,81.20
2018-04-13T16:35:04.193Z,81.00
2018-04-13T16:37:34.236Z,81.10
2018-04-13T16:40:04.221Z,81.10
2018-04-13T16:42:34.543Z,81.10
2018-04-13T16:45:04.686Z,81.00
2018-04-13T16:47:34.676Z,80.90
2018-04-13T16:50:04.492Z,80.80
2018-04-13T16:52:34.579Z,80.80
2018-04-13T16:55:05.111Z,80.60
2018-04-13T16:57:35.257Z,80.70
2018-04-13T17:00:05.615Z,80.70
2018-04-13T17:02:35.922Z,80.70
2018-04-13T17:05:06.026Z,80.70
2018-04-13T17:07:36.758Z,80.50
2018-04-13T17:10:06.709Z,80.50
2018-04-13T17:12:36.865Z,80.30
2018-04-13T17:15:06.810Z,80.40
2018-04-13T17:17:36.821Z,80.30
2018-04-13T17:20:07.053Z,80.30
2018-04-13T17:22:37.878Z,80.20
2018-04-13T17:25:11.293Z,80.20
2018-04-13T17:27:43.200Z,80.10
2018-04-13T17:30:17.217Z,79.90
2018-04-13T17:32:47.554Z,79.90
2018-04-13T17:35:17.488Z,79.70
2018-04-13T17:37:47.407Z,79.70
2018-04-13T17:40:17.663Z,79.60
2018-04-13T17:42:47.741Z,79.60
2018-04-13T17:45:18.488Z,80.10
2018-04-13T17:47:49.774Z,79.60
2018-04-13T17:50:19.748Z,79.60
2018-04-13T17:52:50.370Z,79.40
2018-04-13T17:55:20.281Z,79.40
2018-04-13T17:57:50.401Z,79.00
2018-04-13T18:00:21.960Z,79.20
2018-04-13T18:02:52.072Z,79.20
2018-04-13T18:05:21.985Z,79.20
2018-04-13T18:07:52.531Z,79.10
2018-04-13T18:10:22.486Z,79.00
2018-04-13T18:12:52.355Z,79.00
2018-04-13T18:15:22.259Z,78.90
2018-04-13T18:17:52.909Z,79.00
2018-04-13T18:20:23.899Z,79.40
2018-04-13T18:22:54.053Z,78.60
2018-04-13T18:25:24.141Z,78.60
2018-04-13T18:27:59.886Z,78.70
2018-04-13T18:30:36.138Z,78.70
2018-04-13T18:33:07.228Z,78.50
2018-04-13T18:35:37.141Z,78.50
2018-04-13T18:38:07.052Z,78.30
2018-04-13T18:40:38.402Z,78.30
2018-04-13T18:43:09.539Z,78.30
2018-04-13T18:45:39.364Z,78.40
2018-04-13T18:48:09.270Z,78.10
2018-04-13T18:50:39.187Z,78.00
2018-04-13T18:53:09.199Z,78.10
2018-04-13T18:55:39.627Z,78.10
2018-04-13T18:58:09.798Z,77.90
2018-04-13T19:00:39.864Z,78.00
2018-04-13T19:03:10.819Z,77.90
2018-04-13T19:05:42.479Z,77.90
2018-04-13T19:08:13.235Z,77.80
2018-04-13T19:10:43.492Z,77.80
2018-04-13T19:13:13.799Z,77.60
2018-04-13T19:15:52.501Z,77.60
2018-04-13T19:18:23.269Z,77.60
2018-04-13T19:20:53.318Z,77.60
2018-04-13T19:23:24.856Z,77.30
2018-04-13T19:25:55.663Z,77.40
2018-04-13T19:28:25.660Z,77.30
2018-04-13T19:30:55.881Z,77.60
2018-04-13T19:33:26.264Z,77.40
2018-04-13T19:35:56.288Z,77.30
2018-04-13T19:38:26.604Z,77.10
2018-04-13T19:40:56.885Z,77.20
2018-04-13T19:43:26.841Z,77.10
2018-04-13T19:45:56.756Z,77.10
2018-04-13T19:48:26.948Z,77.50
2018-04-13T19:50:57.818Z,77.00
2018-04-13T19:53:28.054Z,77.00
2018-04-13T19:55:58.226Z,76.70
2018-04-13T19:58:28.077Z,76.90
2018-04-13T20:00:58.907Z,76.90
2018-04-13T20:03:29.307Z,76.90
2018-04-13T20:08:43.195Z,76.70
2018-04-13T20:11:13.305Z,76.60
2018-04-13T20:13:43.221Z,76.60
2018-04-13T20:16:20.917Z,76.50
2018-04-13T20:18:58.209Z,76.50
2018-04-13T20:21:28.122Z,76.60
2018-04-13T20:23:58.037Z,76.40
2018-04-13T20:26:27.948Z,76.70
2018-04-13T20:29:00.327Z,76.40
2018-04-13T20:31:31.672Z,76.40
2018-04-13T20:34:01.766Z,76.50
2018-04-13T20:36:34.836Z,76.50
2018-04-13T20:39:06.460Z,76.30
2018-04-13T20:41:37.265Z,76.30
2018-04-13T20:44:07.533Z,76.30
2018-04-13T20:46:37.510Z,76.30
2018-04-13T20:49:07.582Z,76.30
2018-04-13T20:51:37.744Z,76.30
2018-04-13T20:54:08.307Z,76.10
2018-04-13T20:56:38.349Z,76.30
2018-04-13T20:59:08.275Z,76.30
2018-04-13T21:01:38.408Z,76.30
2018-04-13T21:04:13.798Z,76.10
2018-04-13T21:06:44.389Z,76.00
2018-04-13T21:09:17.852Z,76.10
2018-04-13T21:11:47.704Z,76.20
2018-04-13T21:14:18.254Z,76.10
2018-04-13T21:16:48.353Z,76.20
2018-04-13T21:19:18.471Z,76.10
2018-04-13T21:21:48.372Z,76.00
2018-04-13T21:24:18.302Z,76.10
2018-04-13T21:26:48.419Z,76.10
2018-04-13T21:29:18.540Z,76.00
2018-04-13T21:31:49.476Z,76.00
2018-04-13T21:34:19.391Z,76.10
2018-04-13T21:36:49.516Z,76.00
2018-04-13T21:39:20.039Z,75.90
2018-04-13T21:41:50.159Z,76.00
2018-04-13T21:44:20.076Z,76.00
2018-04-13T21:46:49.961Z,76.00
2018-04-13T21:49:19.705Z,76.00
2018-04-13T21:51:50.044Z,76.00
2018-04-13T21:54:19.730Z,76.10
2018-04-13T21:56:51.747Z,76.00
2018-04-13T21:59:22.054Z,76.00
2018-04-13T22:01:51.930Z,76.00
2018-04-13T22:04:22.011Z,75.70
2018-04-13T22:06:52.168Z,76.00
2018-04-13T22:09:23.721Z,76.10
2018-04-13T22:11:53.640Z,76.10
2018-04-13T22:14:57.343Z,76.70
2018-04-13T22:17:27.460Z,76.00
2018-04-13T22:19:57.448Z,76.00
2018-04-13T22:22:27.801Z,76.10
2018-04-13T22:24:57.919Z,76.20
2018-04-13T22:27:27.833Z,76.30
2018-04-13T22:29:59.494Z,76.40
2018-04-13T22:32:29.478Z,76.30
2018-04-13T22:34:59.554Z,76.20
2018-04-13T22:37:29.495Z,76.30
2018-04-13T22:39:59.975Z,76.40
2018-04-13T22:42:29.988Z,76.40
2018-04-13T22:44:59.998Z,76.60
2018-04-13T22:47:30.001Z,76.60
2018-04-13T22:49:59.930Z,76.60
2018-04-13T22:52:31.687Z,76.50
2018-04-13T22:55:01.771Z,76.60
2018-04-13T22:57:31.515Z,76.50
2018-04-13T23:00:02.828Z,76.50
2018-04-13T23:02:33.158Z,76.50
2018-04-13T23:05:03.307Z,76.10
2018-04-13T23:07:33.222Z,76.30
2018-04-13T23:10:04.133Z,76.50
2018-04-13T23:12:34.073Z,76.50
2018-04-13T23:15:03.989Z,76.50
2018-04-13T23:17:34.106Z,76.50
2018-04-13T23:20:04.627Z,76.50
2018-04-13T23:22:38.727Z,77.20
2018-04-13T23:25:08.773Z,76.50
2018-04-13T23:27:38.648Z,76.60
2018-04-13T23:30:08.799Z,76.50
2018-04-13T23:32:38.712Z,76.60
2018-04-13T23:35:10.061Z,76.50
2018-04-13T23:37:40.590Z,76.60
2018-04-13T23:40:10.505Z,76.50
2018-04-13T23:42:40.421Z,76.50
2018-04-13T23:45:10.130Z,76.60
2018-04-13T23:47:40.043Z,76.60
2018-04-13T23:50:11.391Z,76.50
2018-04-13T23:52:41.309Z,76.50
2018-04-13T23:55:11.015Z,76.40
2018-04-13T23:57:40.730Z,76.50
